Time;durP1;ratioP1;P1;durP2;ratioP2;P2;SDS_P1;SDS_P2;PMS_P1;PMS_P2;Temp;Humidity;BMP_temperature;BMP_pressure;BME280_temperature;BME280_humidity;BME280_pressure;Samples;Min_cycle;Max_cycle;Signal;HPM_P1;HPM_P2
2022/05/03 00:00:16;;;;;;;4.88;2.72;;;10.00;82.00;;;;;;5034808;28;20037;-75
2022/05/03 00:02:51;;;;;;;3.40;2.20;;;9.90;83.40;;;;;;5013453;28;20037;-73
2022/05/03 00:06:03;;;;;;;3.50;2.53;;;10.00;84.30;;;;;;5033267;28;20029;-76
2022/05/03 00:08:31;;;;;;;4.60;2.38;;;9.90;84.80;;;;;;4970259;28;20053;-73
2022/05/03 00:11:15;;;;;;;2.22;2.03;;;9.90;85.70;;;;;;5031989;28;20555;-73
2022/05/03 00:13:59;;;;;;;4.00;2.22;;;9.90;86.10;;;;;;5032411;28;20072;-75
2022/05/03 00:16:26;;;;;;;4.63;2.45;;;9.90;87.20;;;;;;5028151;28;20021;-73
2022/05/03 00:18:52;;;;;;;3.40;2.30;;;9.80;88.00;;;;;;5030831;28;20037;-76
2022/05/03 00:21:19;;;;;;;3.97;2.20;;;9.80;89.10;;;;;;5007789;28;20036;-76
2022/05/03 00:23:45;;;;;;;3.60;2.60;;;9.70;90.00;;;;;;5017493;28;20026;-75
2022/05/03 00:26:11;;;;;;;4.93;2.13;;;9.60;91.80;;;;;;5034953;28;20040;-73
2022/05/03 00:28:38;;;;;;;3.00;2.20;;;9.50;91.60;;;;;;5010911;28;20396;-72
2022/05/03 00:31:04;;;;;;;2.58;1.80;;;9.60;92.10;;;;;;5027827;28;20056;-75
2022/05/03 00:33:33;;;;;;;5.13;2.30;;;9.50;93.10;;;;;;5012504;28;20045;-75
2022/05/03 00:35:59;;;;;;;3.05;2.00;;;9.40;93.50;;;;;;5016134;28;20029;-75
2022/05/03 00:38:25;;;;;;;4.10;2.17;;;9.40;93.30;;;;;;5014135;28;20500;-73
2022/05/03 00:41:00;;;;;;;4.82;2.10;;;9.40;93.50;;;;;;5000109;28;20032;-75
2022/05/03 00:43:39;;;;;;;4.15;2.45;;;9.50;94.10;;;;;;5016367;28;20036;-73
2022/05/03 00:46:16;;;;;;;4.60;2.30;;;9.50;94.20;;;;;;5034405;28;20049;-72
2022/05/03 00:49:06;;;;;;;5.90;2.35;;;9.50;94.20;;;;;;5032908;28;20111;-75
2022/05/03 00:51:42;;;;;;;3.50;2.17;;;9.50;94.20;;;;;;5032754;28;20032;-73
2022/05/03 00:54:47;;;;;;;3.90;3.03;;;9.50;94.50;;;;;;5031810;28;20287;-73
2022/05/03 00:57:12;;;;;;;6.07;2.53;;;9.40;94.80;;;;;;5018659;28;20031;-73
2022/05/03 01:00:08;;;;;;;4.72;2.65;;;9.40;94.90;;;;;;5038389;28;20096;-73
2022/05/03 01:02:53;;;;;;;4.18;2.40;;;9.40;95.80;;;;;;5021442;28;20036;-75
2022/05/03 01:05:36;;;;;;;4.55;2.67;;;9.20;96.90;;;;;;5015060;28;20999;-72
2022/05/03 01:08:09;;;;;;;4.80;3.20;;;9.20;96.70;;;;;;5034136;28;20174;-75
2022/05/03 01:11:20;;;;;;;4.05;2.83;;;9.30;97.20;;;;;;5033585;28;20026;-75
2022/05/03 01:13:53;;;;;;;9.50;3.20;;;9.30;97.10;;;;;;4967814;28;20056;-73
2022/05/03 01:16:40;;;;;;;4.65;2.80;;;9.20;97.40;;;;;;5015858;28;20398;-75
2022/05/03 01:19:48;;;;;;;5.13;2.85;;;9.30;97.50;;;;;;5000175;28;20649;-75
2022/05/03 01:22:43;;;;;;;2.95;2.13;;;9.20;97.90;;;;;;5022506;28;20108;-72
2022/05/03 01:25:27;;;;;;;4.60;2.63;;;9.20;98.20;;;;;;5036520;28;20025;-75
2022/05/03 01:28:04;;;;;;;5.72;3.05;;;9.30;98.60;;;;;;5033105;28;20083;-75
2022/05/03 01:30:31;;;;;;;4.53;2.92;;;9.20;98.60;;;;;;5029722;28;20053;-73
2022/05/03 01:33:06;;;;;;;5.10;2.95;;;9.20;98.80;;;;;;5032625;28;20025;-75
2022/05/03 01:35:39;;;;;;;5.95;3.60;;;9.20;99.20;;;;;;5015672;28;20057;-76
2022/05/03 01:38:39;;;;;;;8.15;3.97;;;9.20;99.60;;;;;;5025763;28;20029;-72
2022/05/03 01:41:16;;;;;;;8.55;4.13;;;9.20;99.80;;;;;;5001843;28;20148;-72
2022/05/03 01:43:44;;;;;;;5.30;3.70;;;9.10;99.90;;;;;;5036534;28;20028;-75
2022/05/03 01:46:16;;;;;;;6.90;4.60;;;9.10;99.90;;;;;;5018666;28;20028;-73
2022/05/03 01:52:28;;;;;;;5.82;3.97;;;9.10;99.90;;;;;;5035053;28;20037;-75
2022/05/03 01:55:41;;;;;;;5.43;4.25;;;9.10;99.90;;;;;;4924357;29;20043;-73
2022/05/03 01:58:44;;;;;;;7.32;4.57;;;9.00;99.90;;;;;;4933548;29;20043;-73
2022/05/03 02:01:37;;;;;;;5.60;3.75;;;9.00;99.90;;;;;;4938656;28;20031;-75
2022/05/03 02:04:14;;;;;;;7.78;4.78;;;9.00;99.90;;;;;;4939587;29;20075;-75
2022/05/03 02:06:54;;;;;;;9.10;4.95;;;8.90;99.90;;;;;;4926623;29;20040;-73
2022/05/03 02:09:31;;;;;;;5.68;4.32;;;8.80;99.90;;;;;;4931185;29;20038;-75
2022/05/03 02:12:07;;;;;;;5.88;4.47;;;8.80;99.90;;;;;;4926580;29;20047;-75
2022/05/03 02:14:47;;;;;;;7.22;4.22;;;8.70;99.90;;;;;;4940309;28;20039;-75
2022/05/03 02:17:33;;;;;;;7.40;4.55;;;8.70;99.90;;;;;;4944230;29;20130;-73
2022/05/03 02:20:11;;;;;;;6.78;3.92;;;8.70;99.90;;;;;;4941075;28;20043;-73
2022/05/03 02:22:50;;;;;;;8.18;4.65;;;8.70;99.90;;;;;;4943655;28;20153;-76
2022/05/03 02:25:34;;;;;;;8.15;4.43;;;8.80;99.90;;;;;;4956346;28;20095;-73
2022/05/03 02:28:23;;;;;;;8.18;4.68;;;8.70;99.90;;;;;;5029676;28;20034;-73
2022/05/03 02:30:51;;;;;;;6.47;4.25;;;8.80;99.90;;;;;;5014166;28;20048;-75
2022/05/03 02:33:26;;;;;;;6.90;4.35;;;8.60;99.90;;;;;;5020416;28;20067;-76
2022/05/03 02:35:57;;;;;;;7.13;4.40;;;8.50;99.90;;;;;;5017657;28;20477;-75
2022/05/03 02:38:37;;;;;;;6.82;4.13;;;8.60;99.90;;;;;;5032515;28;20037;-75
2022/05/03 02:41:06;;;;;;;5.80;3.78;;;8.60;99.90;;;;;;4998836;28;20056;-75
2022/05/03 02:43:34;;;;;;;6.10;4.10;;;8.60;99.90;;;;;;4998677;28;20032;-75
2022/05/03 02:46:19;;;;;;;6.80;4.13;;;8.50;99.90;;;;;;5016581;28;20121;-75
2022/05/03 02:49:04;;;;;;;7.32;4.35;;;8.60;99.90;;;;;;5030247;28;20026;-75
2022/05/03 02:51:45;;;;;;;7.63;4.50;;;8.50;99.90;;;;;;5033456;28;20112;-75
2022/05/03 02:54:32;;;;;;;6.07;4.18;;;8.50;99.90;;;;;;5036026;28;20021;-75
2022/05/03 02:57:14;;;;;;;6.70;4.40;;;8.50;99.90;;;;;;5013787;28;20056;-75
2022/05/03 03:02:56;;;;;;;7.15;4.65;;;8.60;99.90;;;;;;5033913;28;20032;-75
2022/05/03 03:05:26;;;;;;;7.22;4.40;;;8.60;99.90;;;;;;5035144;28;20489;-75
2022/05/03 03:08:02;;;;;;;8.77;4.72;;;8.60;99.90;;;;;;5016464;28;20052;-75
2022/05/03 03:10:38;;;;;;;8.95;4.35;;;8.50;99.90;;;;;;5014775;28;20033;-75
2022/05/03 03:13:13;;;;;;;5.95;4.07;;;8.50;99.90;;;;;;5033262;28;20043;-74
2022/05/03 03:15:40;;;;;;;8.13;4.57;;;8.60;99.90;;;;;;4998934;28;20342;-74
2022/05/03 03:18:13;;;;;;;6.57;4.03;;;8.50;99.90;;;;;;5019503;28;20095;-75
2022/05/03 03:20:47;;;;;;;5.95;4.05;;;8.50;99.90;;;;;;4999133;28;20022;-75
2022/05/03 03:23:18;;;;;;;8.07;4.50;;;8.50;99.90;;;;;;5000683;28;20029;-75
2022/05/03 03:25:47;;;;;;;6.72;4.28;;;8.50;99.90;;;;;;5014201;28;20029;-74
2022/05/03 03:28:16;;;;;;;7.50;4.88;;;8.50;99.90;;;;;;5015250;28;20029;-74
2022/05/03 03:30:44;;;;;;;7.95;4.95;;;8.50;99.90;;;;;;5014415;28;20025;-74
2022/05/03 03:33:12;;;;;;;7.43;4.90;;;8.50;99.90;;;;;;5033503;28;20037;-75
2022/05/03 03:35:40;;;;;;;9.10;4.95;;;8.50;99.90;;;;;;5015459;28;20025;-75
2022/05/03 03:38:09;;;;;;;7.50;5.32;;;8.50;99.90;;;;;;5020629;28;20068;-75
2022/05/03 03:40:35;;;;;;;7.13;5.32;;;8.50;99.90;;;;;;5031645;28;20017;-74
2022/05/03 03:43:00;;;;;;;6.93;5.10;;;8.40;99.90;;;;;;5016472;28;20025;-75
2022/05/03 03:45:27;;;;;;;8.02;5.63;;;8.50;99.90;;;;;;5001203;28;20464;-75
2022/05/03 03:47:53;;;;;;;7.85;5.22;;;8.40;99.90;;;;;;5016979;28;20078;-75
2022/05/03 03:50:20;;;;;;;9.73;5.32;;;8.40;99.90;;;;;;5032802;28;20032;-75
2022/05/03 03:52:47;;;;;;;7.20;4.85;;;8.40;99.90;;;;;;5033638;28;20119;-75
2022/05/03 03:55:14;;;;;;;7.28;5.20;;;8.50;99.90;;;;;;5017365;28;20048;-75
2022/05/03 03:57:40;;;;;;;8.50;5.28;;;8.50;99.90;;;;;;5016256;28;20029;-75
2022/05/03 04:00:09;;;;;;;7.45;4.93;;;8.50;99.90;;;;;;5032786;28;20508;-74
2022/05/03 04:02:35;;;;;;;7.18;4.97;;;8.50;99.90;;;;;;5037579;28;20056;-75
2022/05/03 04:05:02;;;;;;;7.78;4.85;;;8.50;99.90;;;;;;5021210;28;20025;-75
2022/05/03 04:07:28;;;;;;;7.50;4.88;;;8.40;99.90;;;;;;5038440;28;20033;-75
2022/05/03 04:09:53;;;;;;;10.00;5.30;;;8.40;99.90;;;;;;5014878;28;20155;-74
2022/05/03 04:12:23;;;;;;;7.72;5.05;;;8.40;99.90;;;;;;5015212;28;20024;-74
2022/05/03 04:14:49;;;;;;;7.07;5.13;;;8.50;99.90;;;;;;5004763;28;20068;-74
2022/05/03 04:17:15;;;;;;;7.68;4.97;;;8.50;99.90;;;;;;4997302;28;20029;-74
2022/05/03 04:19:42;;;;;;;6.75;4.93;;;8.50;99.90;;;;;;5016446;28;20017;-74
2022/05/03 04:22:28;;;;;;;6.68;4.82;;;8.60;99.90;;;;;;5031827;28;20034;-75
2022/05/03 04:24:54;;;;;;;9.88;5.57;;;8.60;99.90;;;;;;5031353;28;20036;-75
2022/05/03 04:27:21;;;;;;;7.85;4.95;;;8.70;99.90;;;;;;4995608;28;20079;-74
2022/05/03 04:29:51;;;;;;;8.43;5.15;;;8.70;99.90;;;;;;5019469;28;20060;-74
2022/05/03 04:32:17;;;;;;;9.68;5.47;;;8.70;99.90;;;;;;4998619;28;20033;-75
2022/05/03 04:34:43;;;;;;;8.95;5.20;;;8.70;99.90;;;;;;5037018;28;20049;-74
2022/05/03 04:37:09;;;;;;;10.88;5.50;;;8.70;99.90;;;;;;5006495;28;20040;-74
2022/05/03 04:39:34;;;;;;;6.90;4.75;;;8.90;99.90;;;;;;5014855;28;20074;-75
2022/05/03 04:42:00;;;;;;;9.25;5.40;;;8.90;99.90;;;;;;5018112;28;20048;-75
2022/05/03 04:44:26;;;;;;;7.00;4.65;;;8.90;99.90;;;;;;5033858;28;20394;-71
2022/05/03 04:46:51;;;;;;;8.82;5.13;;;9.00;99.90;;;;;;5014842;28;20075;-72
2022/05/03 04:49:17;;;;;;;6.78;4.55;;;9.00;99.90;;;;;;5032220;28;20400;-72
2022/05/03 04:51:43;;;;;;;9.88;5.15;;;9.10;99.90;;;;;;5036581;28;20037;-72
2022/05/03 04:54:08;;;;;;;8.55;5.40;;;9.10;99.90;;;;;;5002539;28;20060;-71
2022/05/03 04:56:35;;;;;;;7.28;4.70;;;9.20;99.90;;;;;;5032463;28;20029;-72
2022/05/03 04:59:03;;;;;;;8.43;5.55;;;9.10;99.90;;;;;;5027237;28;20021;-73
2022/05/03 05:01:29;;;;;;;9.63;5.50;;;9.10;99.90;;;;;;5004890;28;20032;-73
2022/05/03 05:03:55;;;;;;;8.00;4.53;;;9.20;99.90;;;;;;5027793;28;20028;-72
2022/05/03 05:06:24;;;;;;;11.65;5.40;;;9.20;99.90;;;;;;5013265;28;20032;-72
2022/05/03 05:08:50;;;;;;;7.90;5.25;;;9.20;99.90;;;;;;5035598;28;20095;-73
2022/05/03 05:11:15;;;;;;;7.97;5.35;;;9.20;99.90;;;;;;5017122;28;20029;-73
2022/05/03 05:13:41;;;;;;;8.27;5.38;;;9.20;99.90;;;;;;5002401;28;20113;-73
2022/05/03 05:16:08;;;;;;;11.50;5.60;;;9.30;99.90;;;;;;5021518;28;20151;-72
2022/05/03 05:18:34;;;;;;;9.43;7.18;;;9.40;99.90;;;;;;4994612;28;20103;-72
2022/05/03 05:20:59;;;;;;;9.80;7.35;;;9.30;99.90;;;;;;4999191;28;20382;-72
2022/05/03 05:23:25;;;;;;;9.45;5.70;;;9.30;99.90;;;;;;5013045;28;20037;-72
2022/05/03 05:25:52;;;;;;;10.57;5.90;;;9.30;99.90;;;;;;5014769;28;20065;-72
2022/05/03 05:28:20;;;;;;;8.20;6.45;;;9.30;99.90;;;;;;5022876;28;20112;-73
2022/05/03 05:30:46;;;;;;;12.00;6.60;;;9.30;99.90;;;;;;5016817;28;20103;-73
2022/05/03 05:33:12;;;;;;;11.77;6.72;;;9.30;99.90;;;;;;5017545;28;20040;-73
2022/05/03 05:35:40;;;;;;;8.95;6.35;;;9.40;99.90;;;;;;5011726;28;20022;-73
2022/05/03 05:38:06;;;;;;;12.27;7.53;;;9.40;99.90;;;;;;5012144;28;20112;-72
2022/05/03 05:40:32;;;;;;;11.48;7.80;;;9.40;99.90;;;;;;4993618;28;20041;-72
2022/05/03 05:43:01;;;;;;;21.50;8.25;;;9.40;99.90;;;;;;5016891;28;20528;-72
2022/05/03 05:45:28;;;;;;;11.85;8.07;;;9.40;99.90;;;;;;5004169;28;20056;-73
2022/05/03 05:47:56;;;;;;;11.73;8.13;;;9.40;99.90;;;;;;5036393;28;20078;-73
2022/05/03 05:50:22;;;;;;;13.07;8.00;;;9.50;99.90;;;;;;5019495;28;20029;-75
2022/05/03 05:55:32;;;;;;;15.38;8.85;;;9.50;99.90;;;;;;5027350;28;20033;-72
2022/05/03 05:57:58;;;;;;;16.05;9.18;;;9.60;99.90;;;;;;5015880;28;20033;-75
2022/05/03 06:00:23;;;;;;;14.27;8.20;;;9.70;99.90;;;;;;4998681;28;20050;-73
2022/05/03 06:02:50;;;;;;;12.15;8.65;;;9.70;99.90;;;;;;5008840;28;20129;-72
2022/05/03 06:05:16;;;;;;;13.25;7.35;;;9.80;99.90;;;;;;5021067;28;20219;-72
2022/05/03 06:07:41;;;;;;;12.32;8.45;;;9.80;99.90;;;;;;5025075;28;20029;-76
2022/05/03 06:10:08;;;;;;;11.23;7.45;;;9.90;99.90;;;;;;5024134;28;20028;-74
2022/05/03 06:12:34;;;;;;;12.13;8.45;;;9.90;99.90;;;;;;5013306;28;20034;-76
2022/05/03 06:14:59;;;;;;;16.63;9.82;;;10.00;99.90;;;;;;5032999;28;20107;-76
2022/05/03 06:17:25;;;;;;;17.40;9.23;;;10.00;99.90;;;;;;5021725;28;20033;-73
2022/05/03 06:19:52;;;;;;;18.00;10.40;;;10.10;99.90;;;;;;5032927;28;20025;-75
2022/05/03 06:22:17;;;;;;;14.38;8.90;;;10.10;99.90;;;;;;5015552;28;20029;-72
2022/05/03 06:24:47;;;;;;;15.82;9.85;;;10.10;99.90;;;;;;5031525;28;20869;-75
2022/05/03 06:27:13;;;;;;;14.65;9.40;;;10.10;99.90;;;;;;5037862;28;20029;-73
2022/05/03 06:29:39;;;;;;;15.05;9.60;;;10.10;99.90;;;;;;5031356;28;20033;-75
2022/05/03 06:32:05;;;;;;;16.30;10.02;;;10.00;99.90;;;;;;5000638;28;20033;-75
2022/05/03 06:34:31;;;;;;;14.20;10.00;;;10.10;99.90;;;;;;4995392;28;20032;-72
2022/05/03 06:36:58;;;;;;;14.40;9.50;;;10.10;99.90;;;;;;5032764;28;20029;-72
2022/05/03 06:39:24;;;;;;;17.42;8.93;;;10.20;99.90;;;;;;5032850;28;20064;-73
2022/05/03 06:41:49;;;;;;;20.42;10.45;;;10.30;99.90;;;;;;5018811;28;20033;-72
2022/05/03 06:44:16;;;;;;;15.93;10.23;;;10.40;99.90;;;;;;5014366;28;20045;-73
2022/05/03 06:46:42;;;;;;;18.38;10.77;;;10.40;99.90;;;;;;5019000;28;20064;-72
2022/05/03 06:49:10;;;;;;;20.10;11.27;;;10.50;99.90;;;;;;5016019;28;20413;-73
2022/05/03 06:51:37;;;;;;;19.65;11.93;;;10.50;99.90;;;;;;5018276;28;20408;-72
2022/05/03 06:54:03;;;;;;;14.95;10.82;;;10.50;99.90;;;;;;5016796;28;20108;-72
2022/05/03 06:56:35;;;;;;;20.08;12.90;;;10.50;99.90;;;;;;5034517;28;20517;-72
2022/05/03 06:59:04;;;;;;;14.68;10.35;;;10.60;99.90;;;;;;5016851;28;20055;-72
2022/05/03 07:01:30;;;;;;;24.75;13.15;;;10.60;99.90;;;;;;5013176;28;20108;-72
2022/05/03 07:03:55;;;;;;;20.88;12.63;;;10.70;99.90;;;;;;5012754;28;20028;-71
2022/05/03 07:06:21;;;;;;;26.80;13.25;;;10.70;99.90;;;;;;5006593;28;20083;-72
2022/05/03 07:08:47;;;;;;;21.95;14.15;;;10.70;99.90;;;;;;5034680;28;20037;-72
2022/05/03 07:11:14;;;;;;;24.00;12.90;;;10.60;99.90;;;;;;5011914;28;20044;-71
2022/05/03 07:13:40;;;;;;;21.90;12.95;;;10.70;99.90;;;;;;5029551;28;20505;-73
2022/05/03 07:16:06;;;;;;;23.27;13.45;;;10.70;99.90;;;;;;5031471;28;20033;-72
2022/05/03 07:24:08;;;;;;;18.67;11.52;;;10.80;99.90;;;;;;5014289;28;20120;-73
2022/05/03 07:26:34;;;;;;;22.98;13.10;;;10.80;99.90;;;;;;5031077;28;20108;-73
2022/05/03 07:29:00;;;;;;;22.40;13.13;;;10.80;99.90;;;;;;5011992;28;20025;-72
2022/05/03 07:31:25;;;;;;;25.48;13.77;;;10.80;99.90;;;;;;5037111;28;20049;-72
2022/05/03 07:33:51;;;;;;;23.30;13.38;;;10.90;99.90;;;;;;4996817;28;20033;-73
2022/05/03 07:36:20;;;;;;;23.05;13.35;;;10.90;99.90;;;;;;5047659;28;20044;-72
2022/05/03 07:38:46;;;;;;;21.05;12.85;;;10.80;99.90;;;;;;5014868;28;20094;-73
2022/05/03 07:41:13;;;;;;;21.15;12.63;;;10.90;99.90;;;;;;5017678;28;20045;-73
2022/05/03 07:43:39;;;;;;;24.98;14.57;;;10.90;99.90;;;;;;5013959;28;20033;-73
2022/05/03 07:46:04;;;;;;;30.15;15.65;;;11.00;99.90;;;;;;5015093;28;20029;-73
2022/05/03 07:48:30;;;;;;;25.25;14.05;;;11.00;99.90;;;;;;5016384;28;20033;-72
2022/05/03 07:50:56;;;;;;;20.73;13.45;;;10.90;99.90;;;;;;5031783;28;20080;-72
2022/05/03 07:53:22;;;;;;;23.17;13.00;;;10.90;99.90;;;;;;5016300;28;20039;-72
2022/05/03 07:55:49;;;;;;;17.25;12.18;;;11.00;99.90;;;;;;5016315;28;20405;-72
2022/05/03 07:58:16;;;;;;;21.52;11.85;;;11.00;99.90;;;;;;4992081;28;20036;-73
2022/05/03 08:00:42;;;;;;;20.80;12.82;;;11.00;99.90;;;;;;5015848;28;20038;-73
2022/05/03 08:03:07;;;;;;;20.10;12.45;;;11.10;99.90;;;;;;5005580;28;20060;-73
2022/05/03 08:05:34;;;;;;;21.35;12.45;;;11.20;99.90;;;;;;5038500;28;20410;-72
2022/05/03 08:07:59;;;;;;;19.77;11.48;;;11.10;99.90;;;;;;5035098;28;20040;-72
2022/05/03 08:10:25;;;;;;;19.00;10.88;;;11.10;99.90;;;;;;5038717;28;20045;-72
2022/05/03 08:12:51;;;;;;;19.95;11.73;;;11.10;99.90;;;;;;4995314;28;20025;-72
2022/05/03 08:15:22;;;;;;;19.98;11.48;;;11.10;99.90;;;;;;5021594;28;20063;-72
2022/05/03 08:17:48;;;;;;;18.10;10.63;;;11.20;99.90;;;;;;5020794;28;20021;-72
2022/05/03 08:20:15;;;;;;;19.75;11.48;;;11.30;99.90;;;;;;5017355;28;20036;-72
2022/05/03 08:22:42;;;;;;;21.85;11.82;;;11.20;99.90;;;;;;5019409;28;20033;-73
2022/05/03 08:25:08;;;;;;;20.63;12.15;;;11.30;99.90;;;;;;5032431;28;20036;-72
2022/05/03 08:27:37;;;;;;;20.23;12.30;;;11.30;99.90;;;;;;5016644;28;20408;-71
2022/05/03 08:30:04;;;;;;;21.27;12.23;;;11.20;99.90;;;;;;5032421;28;20571;-73
2022/05/03 08:32:30;;;;;;;20.20;11.57;;;11.30;99.90;;;;;;5000763;28;20044;-72
2022/05/03 08:34:56;;;;;;;22.30;12.00;;;11.20;99.90;;;;;;5019083;28;20036;-73
2022/05/03 08:42:54;;;;;;;18.23;10.30;;;11.40;99.90;;;;;;5037537;28;20033;-73
2022/05/03 08:45:20;;;;;;;13.80;9.00;;;11.40;99.90;;;;;;5033903;28;20043;-73
2022/05/03 08:47:48;;;;;;;16.48;8.70;;;11.30;99.90;;;;;;5032237;28;20484;-73
2022/05/03 08:50:18;;;;;;;17.17;8.52;;;11.60;99.90;;;;;;5026112;28;20043;-72
2022/05/03 08:52:55;;;;;;;19.95;8.85;;;11.70;99.90;;;;;;5029662;28;21070;-72
2022/05/03 08:55:22;;;;;;;16.25;9.20;;;11.90;99.90;;;;;;4989206;28;20029;-73
2022/05/03 08:57:48;;;;;;;16.60;9.00;;;12.20;99.90;;;;;;5013377;28;20036;-73
2022/05/03 09:00:17;;;;;;;16.48;8.40;;;12.20;99.90;;;;;;5000532;28;20685;-73
2022/05/03 09:02:48;;;;;;;13.00;7.30;;;12.30;99.90;;;;;;5036198;28;20448;-73
2022/05/03 09:05:15;;;;;;;11.98;7.20;;;12.50;99.90;;;;;;5031346;28;20060;-73
2022/05/03 09:07:54;;;;;;;15.30;6.00;;;12.70;99.90;;;;;;5037359;28;20522;-73
2022/05/03 09:10:25;;;;;;;17.45;7.13;;;12.70;99.90;;;;;;5033814;28;20033;-74
2022/05/03 09:12:51;;;;;;;15.63;7.70;;;12.90;99.90;;;;;;5011550;28;20021;-75
2022/05/03 09:15:32;;;;;;;10.48;6.07;;;12.90;99.90;;;;;;5017054;28;20151;-73
2022/05/03 09:17:58;;;;;;;12.23;5.50;;;12.90;99.90;;;;;;5017234;28;20037;-75
2022/05/03 09:26:12;;;;;;;12.10;5.00;;;13.20;99.90;;;;;;5034668;28;20350;-74
2022/05/03 09:29:06;;;;;;;14.85;4.88;;;13.20;99.90;;;;;;5027380;28;20033;-72
2022/05/03 09:31:37;;;;;;;6.85;4.13;;;13.20;99.90;;;;;;5034667;28;20126;-74
2022/05/03 09:34:05;;;;;;;12.73;3.85;;;13.30;99.90;;;;;;5028664;28;20041;-75
2022/05/03 09:36:42;;;;;;;10.55;4.10;;;13.50;99.90;;;;;;5014607;28;20036;-75
2022/05/03 09:39:07;;;;;;;8.25;3.90;;;13.40;99.90;;;;;;4999215;28;20036;-75
2022/05/03 09:41:33;;;;;;;8.75;3.53;;;13.30;99.90;;;;;;5015977;28;20033;-76
2022/05/03 09:44:04;;;;;;;8.35;3.65;;;13.50;99.90;;;;;;5035624;28;20112;-73
2022/05/03 09:46:48;;;;;;;13.63;4.60;;;13.70;99.90;;;;;;5013987;28;20025;-73
2022/05/03 09:49:14;;;;;;;10.50;3.50;;;13.80;99.90;;;;;;5034565;28;20068;-75
2022/05/03 09:51:39;;;;;;;13.77;3.90;;;13.80;99.90;;;;;;5014929;28;20103;-73
2022/05/03 09:54:05;;;;;;;10.32;4.18;;;13.90;99.90;;;;;;4995445;28;20030;-72
2022/05/03 09:56:35;;;;;;;10.07;4.15;;;13.80;99.90;;;;;;5027929;28;20036;-73
2022/05/03 09:59:07;;;;;;;10.60;4.65;;;13.80;99.90;;;;;;5014198;28;20024;-72
2022/05/03 10:01:37;;;;;;;13.52;4.50;;;13.80;99.90;;;;;;4997528;28;20029;-72
2022/05/03 10:04:06;;;;;;;13.32;3.50;;;13.70;99.90;;;;;;5030851;28;20327;-73
2022/05/03 10:06:32;;;;;;;8.35;3.17;;;13.80;99.70;;;;;;5031336;28;20025;-73
2022/05/03 10:09:00;;;;;;;6.35;2.70;;;13.70;99.60;;;;;;5001361;28;20476;-72
2022/05/03 10:11:27;;;;;;;8.93;3.17;;;13.80;99.60;;;;;;5017481;28;20017;-72
2022/05/03 10:13:54;;;;;;;9.02;2.50;;;13.90;99.10;;;;;;5029320;28;20549;-75
2022/05/03 10:21:59;;;;;;;11.23;3.40;;;14.10;98.60;;;;;;5012898;28;20053;-72
2022/05/03 10:24:26;;;;;;;6.47;2.40;;;14.20;97.90;;;;;;5014714;28;20071;-73
2022/05/03 10:26:52;;;;;;;4.90;2.30;;;14.20;98.00;;;;;;5029333;28;20477;-76
2022/05/03 10:29:23;;;;;;;8.55;2.75;;;14.40;97.90;;;;;;5009305;28;20033;-75
2022/05/03 10:32:03;;;;;;;7.47;2.38;;;14.50;97.30;;;;;;5017007;28;20021;-72
2022/05/03 10:34:59;;;;;;;7.45;2.72;;;14.50;97.30;;;;;;5032938;28;20526;-74
2022/05/03 10:37:35;;;;;;;7.70;2.75;;;14.50;97.00;;;;;;5017675;28;20421;-76
2022/05/03 10:40:06;;;;;;;7.85;2.60;;;14.50;97.30;;;;;;5032306;28;20512;-73
2022/05/03 10:42:33;;;;;;;7.22;2.38;;;14.60;97.30;;;;;;5013965;28;20505;-76
2022/05/03 10:45:11;;;;;;;7.63;2.45;;;14.50;96.70;;;;;;5016325;28;20095;-75
2022/05/03 10:47:54;;;;;;;7.70;2.42;;;14.50;96.50;;;;;;5015945;28;20041;-75
2022/05/03 10:50:20;;;;;;;5.82;2.30;;;14.40;96.60;;;;;;5015598;28;20120;-76
2022/05/03 10:53:09;;;;;;;6.63;2.47;;;14.30;96.80;;;;;;5015245;28;20060;-75
2022/05/03 10:55:40;;;;;;;7.43;2.63;;;14.40;96.00;;;;;;5015937;28;20049;-76
2022/05/03 10:58:16;;;;;;;;;;;14.20;95.70;;;;;;4996593;28;20160;-76
2022/05/03 11:01:02;;;;;;;5.32;2.15;;;14.30;96.10;;;;;;5017179;28;19911;-76
2022/05/03 11:03:32;;;;;;;6.35;2.08;;;14.40;95.60;;;;;;5010116;28;20085;-76
2022/05/03 11:06:26;;;;;;;8.88;2.13;;;14.70;95.60;;;;;;5014131;28;20025;-76
2022/05/03 11:11:36;;;;;;;8.52;1.95;;;15.00;94.40;;;;;;5012363;28;20021;-73
2022/05/03 11:14:02;;;;;;;5.90;1.90;;;14.70;94.60;;;;;;5013474;28;20034;-76
2022/05/03 11:16:34;;;;;;;5.57;2.00;;;15.80;95.10;;;;;;4998710;28;20035;-73
2022/05/03 11:19:15;;;;;;;6.50;2.13;;;17.40;90.50;;;;;;5028344;28;20029;-77
2022/05/03 11:21:42;;;;;;;6.95;1.95;;;18.00;84.40;;;;;;5034314;28;20025;-73
2022/05/03 11:24:21;;;;;;;7.35;2.40;;;19.00;82.00;;;;;;5013237;28;20029;-74
2022/05/03 11:26:48;;;;;;;5.15;1.65;;;20.40;75.30;;;;;;5011802;28;20147;-76
2022/05/03 11:29:14;;;;;;;5.22;1.92;;;21.80;70.20;;;;;;5027118;28;20053;-73
2022/05/03 11:31:46;;;;;;;4.70;1.88;;;23.00;64.90;;;;;;5035344;28;20168;-72
2022/05/03 11:34:12;;;;;;;4.60;1.90;;;22.90;58.40;;;;;;5015477;28;20056;-72
2022/05/03 11:36:40;;;;;;;8.05;2.08;;;21.70;60.10;;;;;;5012905;28;20029;-72
2022/05/03 11:39:05;;;;;;;6.63;2.65;;;21.60;60.40;;;;;;5032795;28;20038;-72
2022/05/03 11:41:31;;;;;;;6.10;1.88;;;21.20;59.60;;;;;;5033158;28;20034;-74
2022/05/03 11:43:57;;;;;;;5.03;1.63;;;21.30;60.60;;;;;;5030942;28;20021;-75
2022/05/03 11:46:23;;;;;;;7.57;2.08;;;21.90;60.30;;;;;;5034123;28;20107;-73
2022/05/03 11:48:59;;;;;;;6.88;1.90;;;22.60;55.90;;;;;;5016208;28;20028;-73
2022/05/03 11:57:22;;;;;;;4.38;1.70;;;22.70;53.00;;;;;;5031041;28;20132;-73
2022/05/03 11:59:55;;;;;;;6.10;2.00;;;21.90;56.10;;;;;;5031242;28;20033;-72
2022/05/03 12:02:22;;;;;;;3.80;1.88;;;21.50;55.50;;;;;;5014602;28;20028;-73
2022/05/03 12:05:04;;;;;;;6.75;1.90;;;21.50;57.20;;;;;;4998516;28;20029;-73
2022/05/03 12:07:34;;;;;;;8.13;2.42;;;21.90;55.10;;;;;;5027271;28;20122;-73
2022/05/03 12:10:00;;;;;;;9.77;2.40;;;21.60;54.60;;;;;;5009770;28;20032;-72
2022/05/03 12:12:45;;;;;;;9.05;2.95;;;21.20;54.90;;;;;;5013576;28;20037;-77
2022/05/03 12:15:24;;;;;;;10.23;2.20;;;20.40;54.90;;;;;;5034760;28;20041;-76
2022/05/03 12:17:59;;;;;;;9.35;2.10;;;20.20;57.00;;;;;;4998867;28;20029;-76
2022/05/03 12:20:42;;;;;;;9.20;2.38;;;20.50;56.40;;;;;;5019855;28;20033;-77
2022/05/03 12:23:17;;;;;;;8.50;2.63;;;20.80;54.30;;;;;;5036677;28;20121;-77
2022/05/03 12:25:54;;;;;;;7.28;2.40;;;20.10;56.50;;;;;;5032209;28;20081;-73
2022/05/03 12:28:33;;;;;;;7.28;2.08;;;19.50;56.90;;;;;;5031340;28;20075;-73
2022/05/03 12:30:59;;;;;;;7.78;2.17;;;19.50;58.50;;;;;;5032387;28;20048;-73
2022/05/03 12:33:27;;;;;;;8.10;2.80;;;19.80;58.90;;;;;;5015526;28;20037;-74
2022/05/03 12:35:53;;;;;;;6.18;1.75;;;21.10;58.20;;;;;;5032638;28;20120;-77
2022/05/03 12:38:22;;;;;;;9.85;2.47;;;21.70;55.20;;;;;;5018690;28;20052;-73
2022/05/03 12:40:54;;;;;;;9.90;2.22;;;22.60;54.30;;;;;;5009873;28;20032;-77
2022/05/03 12:43:31;;;;;;;5.50;2.00;;;23.10;52.00;;;;;;5007382;28;20063;-73
2022/05/03 12:46:00;;;;;;;6.40;2.10;;;24.10;51.00;;;;;;5029246;28;20036;-73
2022/05/03 12:48:31;;;;;;;11.02;2.88;;;23.40;49.50;;;;;;5016458;28;20045;-73
2022/05/03 12:50:57;;;;;;;;;;;22.80;50.30;;;;;;5020938;28;20049;-76
2022/05/03 12:53:28;;;;;;;8.10;2.33;;;22.60;51.00;;;;;;5013633;28;20011;-73
2022/05/03 12:55:56;;;;;;;6.55;2.13;;;21.90;52.00;;;;;;5033732;28;20497;-72
2022/05/03 12:58:22;;;;;;;8.60;2.38;;;22.30;52.90;;;;;;5034307;28;20029;-73
2022/05/03 13:00:50;;;;;;;6.32;1.83;;;23.60;50.10;;;;;;5014862;28;20886;-70
2022/05/03 13:03:16;;;;;;;7.72;1.67;;;24.70;48.20;;;;;;5034133;28;20045;-71
2022/05/03 13:05:42;;;;;;;4.22;1.70;;;25.50;48.20;;;;;;5010277;28;20049;-71
2022/05/03 13:08:07;;;;;;;5.78;1.77;;;26.50;47.70;;;;;;5036773;28;20041;-71
2022/05/03 13:10:33;;;;;;;8.45;2.00;;;27.10;44.80;;;;;;5027170;28;20037;-71
2022/05/03 13:13:01;;;;;;;6.57;2.25;;;27.70;44.40;;;;;;5002824;28;20037;-71
2022/05/03 13:15:27;;;;;;;12.45;2.40;;;28.20;42.70;;;;;;5015021;28;20037;-70
2022/05/03 13:17:53;;;;;;;7.10;2.00;;;28.30;41.80;;;;;;5030641;28;20564;-71
2022/05/03 13:20:20;;;;;;;8.25;2.25;;;27.80;42.40;;;;;;5032281;28;20112;-72
2022/05/03 13:22:46;;;;;;;6.80;2.03;;;28.50;40.60;;;;;;5018771;28;20044;-74
2022/05/03 13:25:11;;;;;;;6.28;1.80;;;28.90;41.30;;;;;;4999037;28;20025;-72
2022/05/03 13:27:37;;;;;;;10.15;2.65;;;28.90;40.00;;;;;;5020548;28;20034;-71
2022/05/03 13:30:04;;;;;;;7.65;2.10;;;28.70;39.00;;;;;;5011854;28;20780;-71
2022/05/03 13:32:29;;;;;;;6.82;2.58;;;26.80;39.70;;;;;;5025277;28;20029;-71
2022/05/03 13:34:56;;;;;;;9.35;2.05;;;26.40;40.80;;;;;;5015556;28;20169;-73
2022/05/03 13:42:52;;;;;;;8.63;2.05;;;26.00;42.70;;;;;;5032918;28;20116;-74
2022/05/03 13:45:18;;;;;;;9.60;1.92;;;27.30;41.30;;;;;;5016722;28;20120;-73
2022/05/03 13:47:43;;;;;;;9.68;2.33;;;28.80;39.20;;;;;;5012812;28;20029;-75
2022/05/03 13:50:10;;;;;;;9.27;2.60;;;29.40;38.10;;;;;;5033728;28;20064;-74
2022/05/03 13:52:37;;;;;;;9.00;1.92;;;30.20;38.10;;;;;;5033174;28;20026;-73